Check out our new PWSWeather beta!
PWSweather.com
Personal Weather Stations
Station Observations
OINOFYTA
Oinofyta Greece, OinofytaGR 320 11

Oinofyta GreeceOinofytaGR 320 11

Lat: 38.3080648, Lon: 23.6391172

Elevation: 354

Station Type: ProWeatherStation 1080

https://oinofytaweather.gr/

High Low Average
Temperature 68.9°F20.5°C 64.0°F17.8°C 65.7°F18.7°C
Dew Point 59.0°F15.0°C 53.6°F12.0°C 56.6°F13.7°C
Winds 9.7 mph 15.6 kmh 1.7 mph 2.7 kmh 6.0 mph S9.7 kmh S
Wind Gusts 24.4 mph39.3 kmh 6.9 mph11.1 kmh 17.0 mph27.4 kmh
Humidity 80% 64% 73%
Pressure 29.98 in1015.2 mb 29.89 in1012.2 mb -
Precipitation 0.00 in0.0 mm - -
Hour Temp Dew Point Humidity Winds Wind Gusts Pressure Precip Precip Rate Daily Precip Total
12:00 AM 64.8°F18.2°C 57.8°F14.3°C 78% 3.6 mph S5.8 kmh S 13.0 mph20.9 kmh 29.99 in1015.6 mb 0.00 in0.0 mm 0.00 in0.0 mm 0.00 in0.0 mm
12:05 AM 64.8°F18.2°C 58.1°F14.5°C 79% 4.7 mph SSW7.6 kmh SSW 12.1 mph19.5 kmh 29.99 in1015.6 mb 0.00 in0.0 mm 0.00 in0.0 mm 0.00 in0.0 mm
12:10 AM 64.8°F18.2°C 58.1°F14.5°C 79% 4.6 mph SSW7.4 kmh SSW 12.1 mph19.5 kmh 29.99 in1015.6 mb 0.00 in0.0 mm 0.00 in0.0 mm 0.00 in0.0 mm
12:15 AM 64.8°F18.2°C 58.1°F14.5°C 79% 4.2 mph SSW6.8 kmh SSW 13.6 mph21.9 kmh 29.99 in1015.6 mb 0.00 in0.0 mm 0.00 in0.0 mm 0.00 in0.0 mm
12:20 AM 64.8°F18.2°C 58.1°F14.5°C 79% 4.0 mph SSW6.4 kmh SSW 13.6 mph21.9 kmh 29.98 in1015.2 mb 0.00 in0.0 mm 0.00 in0.0 mm 0.00 in0.0 mm
12:25 AM 64.8°F18.2°C 58.5°F14.7°C 80% 4.6 mph S7.4 kmh S 25.1 mph40.4 kmh 29.99 in1015.6 mb 0.00 in0.0 mm 0.00 in0.0 mm 0.00 in0.0 mm
12:30 AM 64.8°F18.2°C 58.5°F14.7°C 80% 5.0 mph S8.0 kmh S 25.1 mph40.4 kmh 30.00 in1015.9 mb 0.00 in0.0 mm 0.00 in0.0 mm 0.00 in0.0 mm
12:35 AM 64.8°F18.2°C 58.5°F14.7°C 80% 4.1 mph SSW6.6 kmh SSW 25.1 mph40.4 kmh 30.00 in1015.9 mb 0.00 in0.0 mm 0.00 in0.0 mm 0.00 in0.0 mm
12:40 AM 64.8°F18.2°C 58.5°F14.7°C 80% 3.8 mph SSW6.1 kmh SSW 11.4 mph18.3 kmh 30.00 in1015.9 mb 0.00 in0.0 mm 0.00 in0.0 mm 0.00 in0.0 mm
12:45 AM 64.9°F18.3°C 58.6°F14.8°C 80% 4.2 mph SW6.8 kmh SW 10.7 mph17.2 kmh 30.00 in1015.9 mb 0.00 in0.0 mm 0.00 in0.0 mm 0.00 in0.0 mm
12:50 AM 64.8°F18.2°C 58.1°F14.5°C 79% 6.7 mph SSW10.8 kmh SSW 18.3 mph29.5 kmh 29.99 in1015.6 mb 0.00 in0.0 mm 0.00 in0.0 mm 0.00 in0.0 mm
12:55 AM 64.9°F18.3°C 58.3°F14.6°C 79% 8.8 mph SSW14.2 kmh SSW 21.3 mph34.3 kmh 29.98 in1015.2 mb 0.00 in0.0 mm 0.00 in0.0 mm 0.00 in0.0 mm
01:00 AM 64.9°F18.3°C 58.6°F14.8°C 80% 8.6 mph SSW13.8 kmh SSW 21.3 mph34.3 kmh 29.98 in1015.2 mb 0.00 in0.0 mm 0.00 in0.0 mm 0.00 in0.0 mm
01:05 AM 64.9°F18.3°C 58.6°F14.8°C 80% 7.3 mph S11.7 kmh S 20.6 mph33.2 kmh 29.98 in1015.2 mb 0.00 in0.0 mm 0.00 in0.0 mm 0.00 in0.0 mm
01:10 AM 64.9°F18.3°C 58.6°F14.8°C 80% 6.6 mph SSW10.6 kmh SSW 18.3 mph29.5 kmh 29.99 in1015.6 mb 0.00 in0.0 mm 0.00 in0.0 mm 0.00 in0.0 mm
01:15 AM 64.9°F18.3°C 58.3°F14.6°C 79% 5.0 mph SSW8.0 kmh SSW 16.8 mph27.0 kmh 29.99 in1015.6 mb 0.00 in0.0 mm 0.00 in0.0 mm 0.00 in0.0 mm
01:20 AM 64.8°F18.2°C 58.5°F14.7°C 80% 3.4 mph S5.5 kmh S 10.7 mph17.2 kmh 29.99 in1015.6 mb 0.00 in0.0 mm 0.00 in0.0 mm 0.00 in0.0 mm
01:25 AM 64.8°F18.2°C 58.1°F14.5°C 79% 4.4 mph S7.1 kmh S 11.4 mph18.3 kmh 29.98 in1015.2 mb 0.00 in0.0 mm 0.00 in0.0 mm 0.00 in0.0 mm
01:30 AM 64.8°F18.2°C 58.1°F14.5°C 79% 5.0 mph S8.0 kmh S 11.4 mph18.3 kmh 29.99 in1015.6 mb 0.00 in0.0 mm 0.00 in0.0 mm 0.00 in0.0 mm
01:35 AM 64.9°F18.3°C 57.9°F14.4°C 78% 5.2 mph SSW8.4 kmh SSW 12.1 mph19.5 kmh 29.98 in1015.2 mb 0.00 in0.0 mm 0.00 in0.0 mm 0.00 in0.0 mm
01:40 AM 64.9°F18.3°C 57.9°F14.4°C 78% 4.9 mph SSW7.9 kmh SSW 12.1 mph19.5 kmh 29.98 in1015.2 mb 0.00 in0.0 mm 0.00 in0.0 mm 0.00 in0.0 mm
01:45 AM 64.9°F18.3°C 58.3°F14.6°C 79% 4.6 mph S7.4 kmh S 13.0 mph20.9 kmh 29.98 in1015.2 mb 0.00 in0.0 mm 0.00 in0.0 mm 0.00 in0.0 mm
01:50 AM 64.8°F18.2°C 58.1°F14.5°C 79% 4.7 mph S7.6 kmh S 13.0 mph20.9 kmh 29.98 in1015.2 mb 0.00 in0.0 mm 0.00 in0.0 mm 0.00 in0.0 mm
01:55 AM 64.6°F18.1°C 57.9°F14.4°C 79% 3.5 mph S5.6 kmh S 11.4 mph18.3 kmh 29.98 in1015.2 mb 0.00 in0.0 mm 0.00 in0.0 mm 0.00 in0.0 mm
02:00 AM 64.4°F18.0°C 58.1°F14.5°C 80% 2.7 mph S4.3 kmh S 6.9 mph11.1 kmh 29.98 in1015.2 mb 0.00 in0.0 mm 0.00 in0.0 mm 0.00 in0.0 mm
02:05 AM 64.2°F17.9°C 57.9°F14.4°C 80% 3.9 mph SSW6.3 kmh SSW 13.6 mph21.9 kmh 29.97 in1014.9 mb 0.00 in0.0 mm 0.00 in0.0 mm 0.00 in0.0 mm
02:10 AM 64.4°F18.0°C 58.1°F14.5°C 80% 5.0 mph SSW8.0 kmh SSW 13.6 mph21.9 kmh 29.98 in1015.2 mb 0.00 in0.0 mm 0.00 in0.0 mm 0.00 in0.0 mm
02:15 AM 64.4°F18.0°C 58.1°F14.5°C 80% 4.5 mph S7.2 kmh S 13.6 mph21.9 kmh 29.98 in1015.2 mb 0.00 in0.0 mm 0.00 in0.0 mm 0.00 in0.0 mm
02:20 AM 64.4°F18.0°C 57.8°F14.3°C 79% 4.8 mph S7.7 kmh S 12.1 mph19.5 kmh 29.98 in1015.2 mb 0.00 in0.0 mm 0.00 in0.0 mm 0.00 in0.0 mm
02:25 AM 64.6°F18.1°C 58.3°F14.6°C 80% 4.8 mph S7.7 kmh S 14.5 mph23.3 kmh 29.98 in1015.2 mb 0.00 in0.0 mm 0.00 in0.0 mm 0.00 in0.0 mm
02:30 AM 64.6°F18.1°C 57.9°F14.4°C 79% 4.3 mph SSW6.9 kmh SSW 14.5 mph23.3 kmh 29.98 in1015.2 mb 0.00 in0.0 mm 0.00 in0.0 mm 0.00 in0.0 mm
02:35 AM 64.8°F18.2°C 58.1°F14.5°C 79% 5.3 mph S8.5 kmh S 14.5 mph23.3 kmh 29.97 in1014.9 mb 0.00 in0.0 mm 0.00 in0.0 mm 0.00 in0.0 mm
02:40 AM 64.9°F18.3°C 57.9°F14.4°C 78% 6.4 mph SSE10.3 kmh SSE 14.5 mph23.3 kmh 29.97 in1014.9 mb 0.00 in0.0 mm 0.00 in0.0 mm 0.00 in0.0 mm
02:45 AM 64.8°F18.2°C 57.8°F14.3°C 78% 5.9 mph SSE9.5 kmh SSE 14.5 mph23.3 kmh 29.97 in1014.9 mb 0.00 in0.0 mm 0.00 in0.0 mm 0.00 in0.0 mm
02:50 AM 64.6°F18.1°C 57.6°F14.2°C 78% 4.7 mph S7.6 kmh S 12.1 mph19.5 kmh 29.98 in1015.2 mb 0.00 in0.0 mm 0.00 in0.0 mm 0.00 in0.0 mm
02:55 AM 64.8°F18.2°C 58.1°F14.5°C 79% 4.3 mph S6.9 kmh S 11.4 mph18.3 kmh 29.97 in1014.9 mb 0.00 in0.0 mm 0.00 in0.0 mm 0.00 in0.0 mm
03:00 AM 64.6°F18.1°C 57.6°F14.2°C 78% 4.6 mph S7.4 kmh S 13.6 mph21.9 kmh 29.97 in1014.9 mb 0.00 in0.0 mm 0.00 in0.0 mm 0.00 in0.0 mm
03:05 AM 64.6°F18.1°C 57.6°F14.2°C 78% 4.2 mph S6.8 kmh S 13.6 mph21.9 kmh 29.97 in1014.9 mb 0.00 in0.0 mm 0.00 in0.0 mm 0.00 in0.0 mm
03:10 AM 64.6°F18.1°C 57.6°F14.2°C 78% 4.0 mph SW6.4 kmh SW 13.6 mph21.9 kmh 29.98 in1015.2 mb 0.00 in0.0 mm 0.00 in0.0 mm 0.00 in0.0 mm
03:15 AM 64.8°F18.2°C 57.8°F14.3°C 78% 3.7 mph SW6.0 kmh SW 10.7 mph17.2 kmh 29.97 in1014.9 mb 0.00 in0.0 mm 0.00 in0.0 mm 0.00 in0.0 mm
03:20 AM 64.6°F18.1°C 57.6°F14.2°C 78% 3.1 mph SSW5.0 kmh SSW 7.6 mph12.2 kmh 29.97 in1014.9 mb 0.00 in0.0 mm 0.00 in0.0 mm 0.00 in0.0 mm
03:25 AM 64.6°F18.1°C 57.6°F14.2°C 78% 3.0 mph SSW4.8 kmh SSW 9.2 mph14.8 kmh 29.96 in1014.6 mb 0.00 in0.0 mm 0.00 in0.0 mm 0.00 in0.0 mm
03:30 AM 64.6°F18.1°C 57.6°F14.2°C 78% 3.8 mph S6.1 kmh S 9.2 mph14.8 kmh 29.96 in1014.6 mb 0.00 in0.0 mm 0.00 in0.0 mm 0.00 in0.0 mm
03:35 AM 64.4°F18.0°C 57.4°F14.1°C 78% 4.7 mph S7.6 kmh S 11.4 mph18.3 kmh 29.96 in1014.6 mb 0.00 in0.0 mm 0.00 in0.0 mm 0.00 in0.0 mm
03:40 AM 64.4°F18.0°C 57.4°F14.1°C 78% 4.4 mph S7.1 kmh S 11.4 mph18.3 kmh 29.96 in1014.6 mb 0.00 in0.0 mm 0.00 in0.0 mm 0.00 in0.0 mm
03:45 AM 64.4°F18.0°C 57.4°F14.1°C 78% 3.7 mph S6.0 kmh S 9.2 mph14.8 kmh 29.96 in1014.6 mb 0.00 in0.0 mm 0.00 in0.0 mm 0.00 in0.0 mm
03:50 AM 64.4°F18.0°C 57.1°F13.9°C 77% 3.1 mph SSE5.0 kmh SSE 9.2 mph14.8 kmh 29.95 in1014.2 mb 0.00 in0.0 mm 0.00 in0.0 mm 0.00 in0.0 mm
03:55 AM 64.4°F18.0°C 57.1°F13.9°C 77% 2.9 mph S4.7 kmh S 9.2 mph14.8 kmh 29.95 in1014.2 mb 0.00 in0.0 mm 0.00 in0.0 mm 0.00 in0.0 mm
04:00 AM 64.8°F18.2°C 57.0°F13.9°C 76% 4.3 mph S6.9 kmh S 15.2 mph24.5 kmh 29.95 in1014.2 mb 0.00 in0.0 mm 0.00 in0.0 mm 0.00 in0.0 mm
04:05 AM 64.8°F18.2°C 56.7°F13.7°C 75% 4.5 mph S7.2 kmh S 15.2 mph24.5 kmh 29.96 in1014.6 mb 0.00 in0.0 mm 0.00 in0.0 mm 0.00 in0.0 mm
04:10 AM 64.8°F18.2°C 57.0°F13.9°C 76% 5.3 mph S8.5 kmh S 15.2 mph24.5 kmh 29.96 in1014.6 mb 0.00 in0.0 mm 0.00 in0.0 mm 0.00 in0.0 mm
04:15 AM 64.8°F18.2°C 57.4°F14.1°C 77% 5.8 mph S9.3 kmh S 15.2 mph24.5 kmh 29.95 in1014.2 mb 0.00 in0.0 mm 0.00 in0.0 mm 0.00 in0.0 mm
04:20 AM 64.6°F18.1°C 57.2°F14.0°C 77% 4.7 mph SW7.6 kmh SW 14.5 mph23.3 kmh 29.96 in1014.6 mb 0.00 in0.0 mm 0.00 in0.0 mm 0.00 in0.0 mm
04:25 AM 64.6°F18.1°C 56.9°F13.8°C 76% 5.5 mph SW8.9 kmh SW 15.9 mph25.6 kmh 29.96 in1014.6 mb 0.00 in0.0 mm 0.00 in0.0 mm 0.00 in0.0 mm
04:30 AM 64.8°F18.2°C 57.0°F13.9°C 76% 5.8 mph SW9.3 kmh SW 16.8 mph27.0 kmh 29.96 in1014.6 mb 0.00 in0.0 mm 0.00 in0.0 mm 0.00 in0.0 mm
04:35 AM 64.6°F18.1°C 56.5°F13.6°C 75% 5.1 mph SSW8.2 kmh SSW 16.8 mph27.0 kmh 29.96 in1014.6 mb 0.00 in0.0 mm 0.00 in0.0 mm 0.00 in0.0 mm
04:40 AM 64.8°F18.2°C 56.7°F13.7°C 75% 5.9 mph S9.5 kmh S 16.8 mph27.0 kmh 29.95 in1014.2 mb 0.00 in0.0 mm 0.00 in0.0 mm 0.00 in0.0 mm
04:45 AM 64.6°F18.1°C 56.5°F13.6°C 75% 5.9 mph S9.5 kmh S 15.2 mph24.5 kmh 29.95 in1014.2 mb 0.00 in0.0 mm 0.00 in0.0 mm 0.00 in0.0 mm
04:50 AM 64.6°F18.1°C 56.5°F13.6°C 75% 5.2 mph S8.4 kmh S 15.2 mph24.5 kmh 29.95 in1014.2 mb 0.00 in0.0 mm 0.00 in0.0 mm 0.00 in0.0 mm
04:55 AM 64.4°F18.0°C 56.7°F13.7°C 76% 5.5 mph S8.9 kmh S 20.6 mph33.2 kmh 29.95 in1014.2 mb 0.00 in0.0 mm 0.00 in0.0 mm 0.00 in0.0 mm
05:00 AM 64.4°F18.0°C 56.7°F13.7°C 76% 5.5 mph S8.9 kmh S 20.6 mph33.2 kmh 29.95 in1014.2 mb 0.00 in0.0 mm 0.00 in0.0 mm 0.00 in0.0 mm
05:05 AM 64.2°F17.9°C 56.9°F13.8°C 77% 5.6 mph SSW9.0 kmh SSW 15.2 mph24.5 kmh 29.94 in1013.9 mb 0.00 in0.0 mm 0.00 in0.0 mm 0.00 in0.0 mm
05:10 AM 64.0°F17.8°C 57.1°F13.9°C 78% 5.6 mph SSW9.0 kmh SSW 18.3 mph29.5 kmh 29.94 in1013.9 mb 0.00 in0.0 mm 0.00 in0.0 mm 0.00 in0.0 mm
05:15 AM 64.0°F17.8°C 57.1°F13.9°C 78% 6.2 mph SW10.0 kmh SW 18.3 mph29.5 kmh 29.94 in1013.9 mb 0.00 in0.0 mm 0.00 in0.0 mm 0.00 in0.0 mm
05:20 AM 64.2°F17.9°C 57.2°F14.0°C 78% 6.6 mph SW10.6 kmh SW 18.3 mph29.5 kmh 29.94 in1013.9 mb 0.00 in0.0 mm 0.00 in0.0 mm 0.00 in0.0 mm
05:25 AM 64.0°F17.8°C 57.1°F13.9°C 78% 4.6 mph SSW7.4 kmh SSW 13.6 mph21.9 kmh 29.94 in1013.9 mb 0.00 in0.0 mm 0.00 in0.0 mm 0.00 in0.0 mm
05:30 AM 64.0°F17.8°C 57.4°F14.1°C 79% 4.4 mph SSW7.1 kmh SSW 13.6 mph21.9 kmh 29.93 in1013.5 mb 0.00 in0.0 mm 0.00 in0.0 mm 0.00 in0.0 mm
05:35 AM 64.0°F17.8°C 57.4°F14.1°C 79% 5.7 mph SSW9.2 kmh SSW 13.6 mph21.9 kmh 29.94 in1013.9 mb 0.00 in0.0 mm 0.00 in0.0 mm 0.00 in0.0 mm
05:40 AM 64.2°F17.9°C 57.6°F14.2°C 79% 5.8 mph SW9.3 kmh SW 13.6 mph21.9 kmh 29.94 in1013.9 mb 0.00 in0.0 mm 0.00 in0.0 mm 0.00 in0.0 mm
05:45 AM 64.2°F17.9°C 57.6°F14.2°C 79% 6.4 mph SW10.3 kmh SW 21.3 mph34.3 kmh 29.95 in1014.2 mb 0.00 in0.0 mm 0.00 in0.0 mm 0.00 in0.0 mm
05:50 AM 64.4°F18.0°C 57.8°F14.3°C 79% 6.9 mph SSW11.1 kmh SSW 23.5 mph37.8 kmh 29.95 in1014.2 mb 0.00 in0.0 mm 0.00 in0.0 mm 0.00 in0.0 mm
05:55 AM 64.2°F17.9°C 57.6°F14.2°C 79% 5.5 mph S8.9 kmh S 23.5 mph37.8 kmh 29.95 in1014.2 mb 0.00 in0.0 mm 0.00 in0.0 mm 0.00 in0.0 mm
06:00 AM 64.2°F17.9°C 57.6°F14.2°C 79% 4.3 mph S6.9 kmh S 13.6 mph21.9 kmh 29.94 in1013.9 mb 0.00 in0.0 mm 0.00 in0.0 mm 0.00 in0.0 mm
06:05 AM 64.4°F18.0°C 57.8°F14.3°C 79% 4.2 mph SSW6.8 kmh SSW 13.6 mph21.9 kmh 29.94 in1013.9 mb 0.00 in0.0 mm 0.00 in0.0 mm 0.00 in0.0 mm
06:10 AM 64.4°F18.0°C 57.8°F14.3°C 79% 4.6 mph SSW7.4 kmh SSW 14.5 mph23.3 kmh 29.94 in1013.9 mb 0.00 in0.0 mm 0.00 in0.0 mm 0.00 in0.0 mm
06:15 AM 64.6°F18.1°C 57.9°F14.4°C 79% 4.8 mph S7.7 kmh S 14.5 mph23.3 kmh 29.94 in1013.9 mb 0.00 in0.0 mm 0.00 in0.0 mm 0.00 in0.0 mm
06:20 AM 64.6°F18.1°C 57.9°F14.4°C 79% 5.0 mph SSE8.0 kmh SSE 17.4 mph28.0 kmh 29.94 in1013.9 mb 0.00 in0.0 mm 0.00 in0.0 mm 0.00 in0.0 mm
06:25 AM 64.6°F18.1°C 57.9°F14.4°C 79% 4.4 mph S7.1 kmh S 17.4 mph28.0 kmh 29.94 in1013.9 mb 0.00 in0.0 mm 0.00 in0.0 mm 0.00 in0.0 mm
06:30 AM 64.6°F18.1°C 57.9°F14.4°C 79% 3.9 mph S6.3 kmh S 15.2 mph24.5 kmh 29.94 in1013.9 mb 0.00 in0.0 mm 0.00 in0.0 mm 0.00 in0.0 mm
06:35 AM 64.8°F18.2°C 58.1°F14.5°C 79% 5.0 mph SSE8.0 kmh SSE 15.2 mph24.5 kmh 29.94 in1013.9 mb 0.00 in0.0 mm 0.00 in0.0 mm 0.00 in0.0 mm
06:40 AM 64.9°F18.3°C 57.9°F14.4°C 78% 5.7 mph S9.2 kmh S 15.9 mph25.6 kmh 29.94 in1013.9 mb 0.00 in0.0 mm 0.00 in0.0 mm 0.00 in0.0 mm
06:45 AM 64.9°F18.3°C 57.9°F14.4°C 78% 5.4 mph S8.7 kmh S 16.8 mph27.0 kmh 29.94 in1013.9 mb 0.00 in0.0 mm 0.00 in0.0 mm 0.00 in0.0 mm
06:50 AM 64.9°F18.3°C 57.9°F14.4°C 78% 4.7 mph SSE7.6 kmh SSE 16.8 mph27.0 kmh 29.95 in1014.2 mb 0.00 in0.0 mm 0.00 in0.0 mm 0.00 in0.0 mm
06:55 AM 64.9°F18.3°C 57.9°F14.4°C 78% 5.4 mph S8.7 kmh S 15.2 mph24.5 kmh 29.95 in1014.2 mb 0.00 in0.0 mm 0.00 in0.0 mm 0.00 in0.0 mm
07:00 AM 64.9°F18.3°C 58.3°F14.6°C 79% 5.8 mph S9.3 kmh S 13.0 mph20.9 kmh 29.94 in1013.9 mb 0.00 in0.0 mm 0.00 in0.0 mm 0.00 in0.0 mm
07:05 AM 64.8°F18.2°C 58.1°F14.5°C 79% 4.6 mph S7.4 kmh S 16.8 mph27.0 kmh 29.95 in1014.2 mb 0.00 in0.0 mm 0.00 in0.0 mm 0.00 in0.0 mm
07:10 AM 64.8°F18.2°C 58.1°F14.5°C 79% 4.7 mph SSW7.6 kmh SSW 16.8 mph27.0 kmh 29.95 in1014.2 mb 0.00 in0.0 mm 0.00 in0.0 mm 0.00 in0.0 mm
07:15 AM 64.8°F18.2°C 58.1°F14.5°C 79% 5.3 mph S8.5 kmh S 14.5 mph23.3 kmh 29.95 in1014.2 mb 0.00 in0.0 mm 0.00 in0.0 mm 0.00 in0.0 mm
07:20 AM 64.9°F18.3°C 58.3°F14.6°C 79% 5.0 mph S8.0 kmh S 12.1 mph19.5 kmh 29.95 in1014.2 mb 0.00 in0.0 mm 0.00 in0.0 mm 0.00 in0.0 mm
07:25 AM 64.6°F18.1°C 58.3°F14.6°C 80% 4.3 mph S6.9 kmh S 11.4 mph18.3 kmh 29.95 in1014.2 mb 0.00 in0.0 mm 0.00 in0.0 mm 0.00 in0.0 mm
07:30 AM 64.6°F18.1°C 58.3°F14.6°C 80% 3.8 mph S6.1 kmh S 24.4 mph39.3 kmh 29.95 in1014.2 mb 0.00 in0.0 mm 0.00 in0.0 mm 0.00 in0.0 mm
07:35 AM 64.8°F18.2°C 58.5°F14.7°C 80% 5.6 mph S9.0 kmh S 24.4 mph39.3 kmh 29.95 in1014.2 mb 0.00 in0.0 mm 0.00 in0.0 mm 0.00 in0.0 mm
07:40 AM 64.9°F18.3°C 58.3°F14.6°C 79% 7.2 mph SSE11.6 kmh SSE 24.4 mph39.3 kmh 29.95 in1014.2 mb 0.00 in0.0 mm 0.00 in0.0 mm 0.00 in0.0 mm
07:45 AM 64.9°F18.3°C 58.3°F14.6°C 79% 6.2 mph SE10.0 kmh SE 15.9 mph25.6 kmh 29.95 in1014.2 mb 0.00 in0.0 mm 0.00 in0.0 mm 0.00 in0.0 mm
07:50 AM 64.9°F18.3°C 58.3°F14.6°C 79% 6.1 mph SE9.8 kmh SE 17.4 mph28.0 kmh 29.95 in1014.2 mb 0.00 in0.0 mm 0.00 in0.0 mm 0.00 in0.0 mm
07:55 AM 64.9°F18.3°C 58.3°F14.6°C 79% 6.0 mph S9.7 kmh S 17.4 mph28.0 kmh 29.96 in1014.6 mb 0.00 in0.0 mm 0.00 in0.0 mm 0.00 in0.0 mm
08:00 AM 64.8°F18.2°C 58.1°F14.5°C 79% 4.3 mph S6.9 kmh S 14.5 mph23.3 kmh 29.96 in1014.6 mb 0.00 in0.0 mm 0.00 in0.0 mm 0.00 in0.0 mm
08:05 AM 64.8°F18.2°C 58.1°F14.5°C 79% 4.0 mph S6.4 kmh S 12.1 mph19.5 kmh 29.96 in1014.6 mb 0.00 in0.0 mm 0.00 in0.0 mm 0.00 in0.0 mm
08:10 AM 65.1°F18.4°C 58.5°F14.7°C 79% 5.6 mph S9.0 kmh S 17.4 mph28.0 kmh 29.96 in1014.6 mb 0.00 in0.0 mm 0.00 in0.0 mm 0.00 in0.0 mm
08:15 AM 65.1°F18.4°C 58.5°F14.7°C 79% 6.5 mph SSW10.5 kmh SSW 17.4 mph28.0 kmh 29.96 in1014.6 mb 0.00 in0.0 mm 0.00 in0.0 mm 0.00 in0.0 mm
08:20 AM 64.9°F18.3°C 58.3°F14.6°C 79% 5.2 mph SSW8.4 kmh SSW 15.2 mph24.5 kmh 29.95 in1014.2 mb 0.00 in0.0 mm 0.00 in0.0 mm 0.00 in0.0 mm
08:25 AM 64.9°F18.3°C 58.3°F14.6°C 79% 4.4 mph S7.1 kmh S 12.1 mph19.5 kmh 29.95 in1014.2 mb 0.00 in0.0 mm 0.00 in0.0 mm 0.00 in0.0 mm
08:30 AM 65.1°F18.4°C 58.5°F14.7°C 79% 5.3 mph SSE8.5 kmh SSE 14.5 mph23.3 kmh 29.95 in1014.2 mb 0.00 in0.0 mm 0.00 in0.0 mm 0.00 in0.0 mm
08:35 AM 65.1°F18.4°C 58.1°F14.5°C 78% 5.4 mph SSE8.7 kmh SSE 14.5 mph23.3 kmh 29.96 in1014.6 mb 0.00 in0.0 mm 0.00 in0.0 mm 0.00 in0.0 mm
08:40 AM 65.3°F18.5°C 58.3°F14.6°C 78% 5.3 mph S8.5 kmh S 17.4 mph28.0 kmh 29.96 in1014.6 mb 0.00 in0.0 mm 0.00 in0.0 mm 0.00 in0.0 mm
08:45 AM 65.5°F18.6°C 58.1°F14.5°C 77% 6.3 mph S10.1 kmh S 18.3 mph29.5 kmh 29.96 in1014.6 mb 0.00 in0.0 mm 0.00 in0.0 mm 0.00 in0.0 mm
08:50 AM 65.5°F18.6°C 58.1°F14.5°C 77% 6.7 mph S10.8 kmh S 18.3 mph29.5 kmh 29.96 in1014.6 mb 0.00 in0.0 mm 0.00 in0.0 mm 0.00 in0.0 mm
08:55 AM 65.5°F18.6°C 58.1°F14.5°C 77% 6.3 mph S10.1 kmh S 18.3 mph29.5 kmh 29.96 in1014.6 mb 0.00 in0.0 mm 0.00 in0.0 mm 0.00 in0.0 mm
09:00 AM 65.7°F18.7°C 58.3°F14.6°C 77% 5.9 mph S9.5 kmh S 18.3 mph29.5 kmh 29.96 in1014.6 mb 0.00 in0.0 mm 0.00 in0.0 mm 0.00 in0.0 mm
09:05 AM 65.8°F18.8°C 58.4°F14.7°C 77% 5.9 mph S9.5 kmh S 18.3 mph29.5 kmh 29.96 in1014.6 mb 0.00 in0.0 mm 0.00 in0.0 mm 0.00 in0.0 mm
09:10 AM 65.8°F18.8°C 58.4°F14.7°C 77% 5.6 mph SSE9.0 kmh SSE 15.9 mph25.6 kmh 29.97 in1014.9 mb 0.00 in0.0 mm 0.00 in0.0 mm 0.00 in0.0 mm
09:15 AM 65.8°F18.8°C 58.4°F14.7°C 77% 4.7 mph S7.6 kmh S 12.1 mph19.5 kmh 29.97 in1014.9 mb 0.00 in0.0 mm 0.00 in0.0 mm 0.00 in0.0 mm
09:20 AM 66.0°F18.9°C 58.3°F14.6°C 76% 4.5 mph S7.2 kmh S 13.6 mph21.9 kmh 29.97 in1014.9 mb 0.00 in0.0 mm 0.00 in0.0 mm 0.00 in0.0 mm
09:25 AM 66.2°F19.0°C 58.8°F14.9°C 77% 5.2 mph S8.4 kmh S 15.9 mph25.6 kmh 29.97 in1014.9 mb 0.00 in0.0 mm 0.00 in0.0 mm 0.00 in0.0 mm
09:30 AM 66.2°F19.0°C 58.4°F14.7°C 76% 6.3 mph S10.1 kmh S 15.9 mph25.6 kmh 29.97 in1014.9 mb 0.00 in0.0 mm 0.00 in0.0 mm 0.00 in0.0 mm
09:35 AM 66.2°F19.0°C 58.4°F14.7°C 76% 6.9 mph S11.1 kmh S 16.8 mph27.0 kmh 29.97 in1014.9 mb 0.00 in0.0 mm 0.00 in0.0 mm 0.00 in0.0 mm
09:40 AM 66.2°F19.0°C 58.4°F14.7°C 76% 6.2 mph S10.0 kmh S 17.4 mph28.0 kmh 29.97 in1014.9 mb 0.00 in0.0 mm 0.00 in0.0 mm 0.00 in0.0 mm
09:45 AM 66.4°F19.1°C 58.6°F14.8°C 76% 6.6 mph SSE10.6 kmh SSE 17.4 mph28.0 kmh 29.96 in1014.6 mb 0.00 in0.0 mm 0.00 in0.0 mm 0.00 in0.0 mm
09:50 AM 66.6°F19.2°C 58.8°F14.9°C 76% 7.2 mph SE11.6 kmh SE 17.4 mph28.0 kmh 29.96 in1014.6 mb 0.00 in0.0 mm 0.00 in0.0 mm 0.00 in0.0 mm
09:55 AM 66.7°F19.3°C 58.6°F14.8°C 75% 7.6 mph SSE12.2 kmh SSE 17.4 mph28.0 kmh 29.96 in1014.6 mb 0.00 in0.0 mm 0.00 in0.0 mm 0.00 in0.0 mm
10:00 AM 66.9°F19.4°C 58.8°F14.9°C 75% 8.7 mph SSE14.0 kmh SSE 18.3 mph29.5 kmh 29.97 in1014.9 mb 0.00 in0.0 mm 0.00 in0.0 mm 0.00 in0.0 mm
10:05 AM 67.3°F19.6°C 58.7°F14.8°C 74% 8.7 mph S14.0 kmh S 21.3 mph34.3 kmh 29.97 in1014.9 mb 0.00 in0.0 mm 0.00 in0.0 mm 0.00 in0.0 mm
10:10 AM 67.6°F19.8°C 58.7°F14.8°C 73% 7.2 mph S11.6 kmh S 21.3 mph34.3 kmh 29.97 in1014.9 mb 0.00 in0.0 mm 0.00 in0.0 mm 0.00 in0.0 mm
10:15 AM 68.0°F20.0°C 59.0°F15.0°C 73% 6.2 mph S10.0 kmh S 14.5 mph23.3 kmh 29.96 in1014.6 mb 0.00 in0.0 mm 0.00 in0.0 mm 0.00 in0.0 mm
10:20 AM 68.4°F20.2°C 58.2°F14.6°C 70% 6.1 mph SSE9.8 kmh SSE 16.8 mph27.0 kmh 29.96 in1014.6 mb 0.00 in0.0 mm 0.00 in0.0 mm 0.00 in0.0 mm
10:25 AM 68.5°F20.3°C 58.4°F14.7°C 70% 6.8 mph SSE10.9 kmh SSE 16.8 mph27.0 kmh 29.96 in1014.6 mb 0.00 in0.0 mm 0.00 in0.0 mm 0.00 in0.0 mm
10:30 AM 68.5°F20.3°C 58.4°F14.7°C 70% 7.0 mph S11.3 kmh S 15.9 mph25.6 kmh 29.96 in1014.6 mb 0.00 in0.0 mm 0.00 in0.0 mm 0.00 in0.0 mm
10:35 AM 68.7°F20.4°C 58.6°F14.8°C 70% 6.4 mph S10.3 kmh S 19.0 mph30.6 kmh 29.96 in1014.6 mb 0.00 in0.0 mm 0.00 in0.0 mm 0.00 in0.0 mm
10:40 AM 68.9°F20.5°C 58.7°F14.8°C 70% 5.9 mph S9.5 kmh S 19.0 mph30.6 kmh 29.96 in1014.6 mb 0.00 in0.0 mm 0.00 in0.0 mm 0.00 in0.0 mm
10:45 AM 68.9°F20.5°C 58.7°F14.8°C 70% 5.7 mph SSE9.2 kmh SSE 15.2 mph24.5 kmh 29.96 in1014.6 mb 0.00 in0.0 mm 0.00 in0.0 mm 0.00 in0.0 mm
10:50 AM 68.7°F20.4°C 58.2°F14.6°C 69% 6.8 mph S10.9 kmh S 16.8 mph27.0 kmh 29.96 in1014.6 mb 0.00 in0.0 mm 0.00 in0.0 mm 0.00 in0.0 mm
10:55 AM 68.5°F20.3°C 58.0°F14.4°C 69% 7.5 mph S12.1 kmh S 16.8 mph27.0 kmh 29.96 in1014.6 mb 0.00 in0.0 mm 0.00 in0.0 mm 0.00 in0.0 mm
11:00 AM 68.4°F20.2°C 57.8°F14.3°C 69% 7.4 mph S11.9 kmh S 22.1 mph35.6 kmh 29.95 in1014.2 mb 0.00 in0.0 mm 0.00 in0.0 mm 0.00 in0.0 mm
11:05 AM 68.2°F20.1°C 58.0°F14.4°C 70% 7.8 mph SSE12.6 kmh SSE 22.1 mph35.6 kmh 29.95 in1014.2 mb 0.00 in0.0 mm 0.00 in0.0 mm 0.00 in0.0 mm
11:10 AM 68.2°F20.1°C 58.0°F14.4°C 70% 7.5 mph S12.1 kmh S 17.4 mph28.0 kmh 29.95 in1014.2 mb 0.00 in0.0 mm 0.00 in0.0 mm 0.00 in0.0 mm
11:15 AM 68.2°F20.1°C 57.6°F14.2°C 69% 8.2 mph S13.2 kmh S 23.5 mph37.8 kmh 29.94 in1013.9 mb 0.00 in0.0 mm 0.00 in0.0 mm 0.00 in0.0 mm
11:20 AM 68.0°F20.0°C 57.5°F14.2°C 69% 9.4 mph SSE15.1 kmh SSE 23.5 mph37.8 kmh 29.94 in1013.9 mb 0.00 in0.0 mm 0.00 in0.0 mm 0.00 in0.0 mm
11:25 AM 68.2°F20.1°C 57.6°F14.2°C 69% 8.1 mph SSE13.0 kmh SSE 19.0 mph30.6 kmh 29.94 in1013.9 mb 0.00 in0.0 mm 0.00 in0.0 mm 0.00 in0.0 mm
11:30 AM 68.2°F20.1°C 57.2°F14.0°C 68% 6.4 mph S10.3 kmh S 18.3 mph29.5 kmh 29.93 in1013.5 mb 0.00 in0.0 mm 0.00 in0.0 mm 0.00 in0.0 mm
11:35 AM 68.2°F20.1°C 57.6°F14.2°C 69% 7.0 mph S11.3 kmh S 19.0 mph30.6 kmh 29.93 in1013.5 mb 0.00 in0.0 mm 0.00 in0.0 mm 0.00 in0.0 mm
11:40 AM 68.0°F20.0°C 57.5°F14.2°C 69% 7.6 mph S12.2 kmh S 19.0 mph30.6 kmh 29.93 in1013.5 mb 0.00 in0.0 mm 0.00 in0.0 mm 0.00 in0.0 mm
11:45 AM 68.2°F20.1°C 57.2°F14.0°C 68% 7.5 mph S12.1 kmh S 19.0 mph30.6 kmh 29.93 in1013.5 mb 0.00 in0.0 mm 0.00 in0.0 mm 0.00 in0.0 mm
11:50 AM 68.2°F20.1°C 57.6°F14.2°C 69% 6.8 mph S10.9 kmh S 19.0 mph30.6 kmh 29.93 in1013.5 mb 0.00 in0.0 mm 0.00 in0.0 mm 0.00 in0.0 mm
11:55 AM 68.5°F20.3°C 57.2°F14.0°C 67% 6.8 mph S10.9 kmh S 18.3 mph29.5 kmh 29.93 in1013.5 mb 0.00 in0.0 mm 0.00 in0.0 mm 0.00 in0.0 mm
12:00 PM 68.9°F20.5°C 57.1°F13.9°C 66% 7.9 mph S12.7 kmh S 20.6 mph33.2 kmh 29.93 in1013.5 mb 0.00 in0.0 mm 0.00 in0.0 mm 0.00 in0.0 mm
12:05 PM 68.7°F20.4°C 56.9°F13.8°C 66% 7.6 mph S12.2 kmh S 20.6 mph33.2 kmh 29.93 in1013.5 mb 0.00 in0.0 mm 0.00 in0.0 mm 0.00 in0.0 mm
12:10 PM 68.5°F20.3°C 56.8°F13.8°C 66% 7.7 mph S12.4 kmh S 20.6 mph33.2 kmh 29.93 in1013.5 mb 0.00 in0.0 mm 0.00 in0.0 mm 0.00 in0.0 mm
12:15 PM 68.5°F20.3°C 57.2°F14.0°C 67% 7.1 mph SSE11.4 kmh SSE 20.6 mph33.2 kmh 29.93 in1013.5 mb 0.00 in0.0 mm 0.00 in0.0 mm 0.00 in0.0 mm
12:20 PM 68.7°F20.4°C 57.3°F14.1°C 67% 7.4 mph S11.9 kmh S 24.4 mph39.3 kmh 29.92 in1013.2 mb 0.00 in0.0 mm 0.00 in0.0 mm 0.00 in0.0 mm
12:25 PM 68.7°F20.4°C 57.3°F14.1°C 67% 9.1 mph S14.6 kmh S 24.4 mph39.3 kmh 29.92 in1013.2 mb 0.00 in0.0 mm 0.00 in0.0 mm 0.00 in0.0 mm
12:30 PM 68.7°F20.4°C 56.9°F13.8°C 66% 8.3 mph SSE13.4 kmh SSE 20.6 mph33.2 kmh 29.92 in1013.2 mb 0.00 in0.0 mm 0.00 in0.0 mm 0.00 in0.0 mm
12:35 PM 68.5°F20.3°C 56.8°F13.8°C 66% 9.0 mph SSE14.5 kmh SSE 20.6 mph33.2 kmh 29.92 in1013.2 mb 0.00 in0.0 mm 0.00 in0.0 mm 0.00 in0.0 mm
12:40 PM 68.7°F20.4°C 56.9°F13.8°C 66% 9.4 mph SSE15.1 kmh SSE 20.6 mph33.2 kmh 29.92 in1013.2 mb 0.00 in0.0 mm 0.00 in0.0 mm 0.00 in0.0 mm
12:45 PM 68.9°F20.5°C 57.1°F13.9°C 66% 7.1 mph SSE11.4 kmh SSE 18.3 mph29.5 kmh 29.92 in1013.2 mb 0.00 in0.0 mm 0.00 in0.0 mm 0.00 in0.0 mm
12:50 PM 68.7°F20.4°C 56.9°F13.8°C 66% 6.3 mph S10.1 kmh S 18.3 mph29.5 kmh 29.92 in1013.2 mb 0.00 in0.0 mm 0.00 in0.0 mm 0.00 in0.0 mm
12:55 PM 68.4°F20.2°C 57.0°F13.9°C 67% 5.8 mph S9.3 kmh S 18.3 mph29.5 kmh 29.92 in1013.2 mb 0.00 in0.0 mm 0.00 in0.0 mm 0.00 in0.0 mm
01:00 PM 68.0°F20.0°C 57.1°F13.9°C 68% 5.2 mph S8.4 kmh S 15.2 mph24.5 kmh 29.92 in1013.2 mb 0.00 in0.0 mm 0.00 in0.0 mm 0.00 in0.0 mm
01:05 PM 68.0°F20.0°C 57.1°F13.9°C 68% 5.1 mph SSE8.2 kmh SSE 16.8 mph27.0 kmh 29.92 in1013.2 mb 0.00 in0.0 mm 0.00 in0.0 mm 0.00 in0.0 mm
01:10 PM 68.2°F20.1°C 56.8°F13.8°C 67% 5.7 mph S9.2 kmh S 16.8 mph27.0 kmh 29.92 in1013.2 mb 0.00 in0.0 mm 0.00 in0.0 mm 0.00 in0.0 mm
01:15 PM 68.0°F20.0°C 56.2°F13.4°C 66% 6.3 mph S10.1 kmh S 14.5 mph23.3 kmh 29.91 in1012.9 mb 0.00 in0.0 mm 0.00 in0.0 mm 0.00 in0.0 mm
01:20 PM 68.2°F20.1°C 56.4°F13.6°C 66% 6.0 mph SSE9.7 kmh SSE 14.5 mph23.3 kmh 29.92 in1013.2 mb 0.00 in0.0 mm 0.00 in0.0 mm 0.00 in0.0 mm
01:25 PM 68.0°F20.0°C 55.8°F13.2°C 65% 5.6 mph S9.0 kmh S 14.5 mph23.3 kmh 29.92 in1013.2 mb 0.00 in0.0 mm 0.00 in0.0 mm 0.00 in0.0 mm
01:30 PM 67.8°F19.9°C 56.1°F13.4°C 66% 6.2 mph S10.0 kmh S 15.9 mph25.6 kmh 29.92 in1013.2 mb 0.00 in0.0 mm 0.00 in0.0 mm 0.00 in0.0 mm
01:35 PM 67.6°F19.8°C 55.9°F13.3°C 66% 7.0 mph S11.3 kmh S 18.3 mph29.5 kmh 29.92 in1013.2 mb 0.00 in0.0 mm 0.00 in0.0 mm 0.00 in0.0 mm
01:40 PM 67.5°F19.7°C 55.3°F12.9°C 65% 6.7 mph S10.8 kmh S 18.3 mph29.5 kmh 29.91 in1012.9 mb 0.00 in0.0 mm 0.00 in0.0 mm 0.00 in0.0 mm
01:45 PM 67.5°F19.7°C 55.7°F13.2°C 66% 5.8 mph SSE9.3 kmh SSE 17.4 mph28.0 kmh 29.91 in1012.9 mb 0.00 in0.0 mm 0.00 in0.0 mm 0.00 in0.0 mm
01:50 PM 67.5°F19.7°C 55.7°F13.2°C 66% 5.1 mph S8.2 kmh S 17.4 mph28.0 kmh 29.91 in1012.9 mb 0.00 in0.0 mm 0.00 in0.0 mm 0.00 in0.0 mm
01:55 PM 67.3°F19.6°C 55.6°F13.1°C 66% 4.9 mph S7.9 kmh S 14.5 mph23.3 kmh 29.91 in1012.9 mb 0.00 in0.0 mm 0.00 in0.0 mm 0.00 in0.0 mm
02:00 PM 67.3°F19.6°C 55.1°F12.8°C 65% 5.4 mph S8.7 kmh S 15.9 mph25.6 kmh 29.91 in1012.9 mb 0.00 in0.0 mm 0.00 in0.0 mm 0.00 in0.0 mm
02:05 PM 67.3°F19.6°C 55.1°F12.8°C 65% 5.8 mph S9.3 kmh S 16.8 mph27.0 kmh 29.91 in1012.9 mb 0.00 in0.0 mm 0.00 in0.0 mm 0.00 in0.0 mm
02:10 PM 67.3°F19.6°C 54.7°F12.6°C 64% 6.5 mph SSE10.5 kmh SSE 17.4 mph28.0 kmh 29.91 in1012.9 mb 0.00 in0.0 mm 0.00 in0.0 mm 0.00 in0.0 mm
02:15 PM 67.1°F19.5°C 55.0°F12.8°C 65% 8.1 mph S13.0 kmh S 24.4 mph39.3 kmh 29.91 in1012.9 mb 0.00 in0.0 mm 0.00 in0.0 mm 0.00 in0.0 mm
02:20 PM 67.1°F19.5°C 55.4°F13.0°C 66% 7.9 mph SSW12.7 kmh SSW 24.4 mph39.3 kmh 29.91 in1012.9 mb 0.00 in0.0 mm 0.00 in0.0 mm 0.00 in0.0 mm
02:25 PM 67.1°F19.5°C 55.4°F13.0°C 66% 6.6 mph S10.6 kmh S 15.9 mph25.6 kmh 29.91 in1012.9 mb 0.00 in0.0 mm 0.00 in0.0 mm 0.00 in0.0 mm
02:30 PM 67.1°F19.5°C 55.8°F13.2°C 67% 7.2 mph S11.6 kmh S 18.3 mph29.5 kmh 29.91 in1012.9 mb 0.00 in0.0 mm 0.00 in0.0 mm 0.00 in0.0 mm
02:35 PM 67.1°F19.5°C 56.2°F13.4°C 68% 7.1 mph S11.4 kmh S 18.3 mph29.5 kmh 29.91 in1012.9 mb 0.00 in0.0 mm 0.00 in0.0 mm 0.00 in0.0 mm
02:40 PM 66.9°F19.4°C 56.0°F13.3°C 68% 6.7 mph SSE10.8 kmh SSE 19.0 mph30.6 kmh 29.91 in1012.9 mb 0.00 in0.0 mm 0.00 in0.0 mm 0.00 in0.0 mm
02:45 PM 66.9°F19.4°C 56.4°F13.6°C 69% 7.1 mph SE11.4 kmh SE 19.0 mph30.6 kmh 29.90 in1012.5 mb 0.00 in0.0 mm 0.00 in0.0 mm 0.00 in0.0 mm
02:50 PM 66.9°F19.4°C 56.4°F13.6°C 69% 7.2 mph SSE11.6 kmh SSE 18.3 mph29.5 kmh 29.90 in1012.5 mb 0.00 in0.0 mm 0.00 in0.0 mm 0.00 in0.0 mm
02:55 PM 66.7°F19.3°C 56.3°F13.5°C 69% 6.6 mph SSE10.6 kmh SSE 16.8 mph27.0 kmh 29.89 in1012.2 mb 0.00 in0.0 mm 0.00 in0.0 mm 0.00 in0.0 mm
03:00 PM 66.6°F19.2°C 56.5°F13.6°C 70% 6.4 mph SSE10.3 kmh SSE 22.8 mph36.7 kmh 29.89 in1012.2 mb 0.00 in0.0 mm 0.00 in0.0 mm 0.00 in0.0 mm
03:05 PM 66.6°F19.2°C 56.5°F13.6°C 70% 6.7 mph SSE10.8 kmh SSE 22.8 mph36.7 kmh 29.89 in1012.2 mb 0.00 in0.0 mm 0.00 in0.0 mm 0.00 in0.0 mm
03:10 PM 66.6°F19.2°C 56.5°F13.6°C 70% 7.3 mph S11.7 kmh S 19.7 mph31.7 kmh 29.89 in1012.2 mb 0.00 in0.0 mm 0.00 in0.0 mm 0.00 in0.0 mm
03:15 PM 66.4°F19.1°C 56.7°F13.7°C 71% 8.4 mph S13.5 kmh S 21.3 mph34.3 kmh 29.89 in1012.2 mb 0.00 in0.0 mm 0.00 in0.0 mm 0.00 in0.0 mm
03:20 PM 66.4°F19.1°C 56.7°F13.7°C 71% 8.2 mph S13.2 kmh S 21.3 mph34.3 kmh 29.89 in1012.2 mb 0.00 in0.0 mm 0.00 in0.0 mm 0.00 in0.0 mm
03:25 PM 66.2°F19.0°C 56.5°F13.6°C 71% 8.0 mph S12.9 kmh S 22.8 mph36.7 kmh 29.89 in1012.2 mb 0.00 in0.0 mm 0.00 in0.0 mm 0.00 in0.0 mm
03:30 PM 66.2°F19.0°C 56.1°F13.4°C 70% 8.3 mph SSE13.4 kmh SSE 22.8 mph36.7 kmh 29.89 in1012.2 mb 0.00 in0.0 mm 0.00 in0.0 mm 0.00 in0.0 mm
03:35 PM 66.2°F19.0°C 56.1°F13.4°C 70% 8.2 mph S13.2 kmh S 19.0 mph30.6 kmh 29.89 in1012.2 mb 0.00 in0.0 mm 0.00 in0.0 mm 0.00 in0.0 mm
03:40 PM 66.2°F19.0°C 56.1°F13.4°C 70% 7.2 mph SSE11.6 kmh SSE 19.0 mph30.6 kmh 29.89 in1012.2 mb 0.00 in0.0 mm 0.00 in0.0 mm 0.00 in0.0 mm
03:45 PM 66.0°F18.9°C 56.0°F13.3°C 70% 6.7 mph S10.8 kmh S 17.4 mph28.0 kmh 29.89 in1012.2 mb 0.00 in0.0 mm 0.00 in0.0 mm 0.00 in0.0 mm
03:50 PM 66.0°F18.9°C 56.0°F13.3°C 70% 7.5 mph S12.1 kmh S 17.4 mph28.0 kmh 29.89 in1012.2 mb 0.00 in0.0 mm 0.00 in0.0 mm 0.00 in0.0 mm
03:55 PM 66.0°F18.9°C 56.0°F13.3°C 70% 8.8 mph S14.2 kmh S 19.0 mph30.6 kmh 29.89 in1012.2 mb 0.00 in0.0 mm 0.00 in0.0 mm 0.00 in0.0 mm
04:00 PM 65.8°F18.8°C 55.4°F13.0°C 69% 9.5 mph S15.3 kmh S 23.5 mph37.8 kmh 29.89 in1012.2 mb 0.00 in0.0 mm 0.00 in0.0 mm 0.00 in0.0 mm
04:05 PM 66.0°F18.9°C 55.6°F13.1°C 69% 9.5 mph S15.3 kmh S 23.5 mph37.8 kmh 29.89 in1012.2 mb 0.00 in0.0 mm 0.00 in0.0 mm 0.00 in0.0 mm
04:10 PM 66.0°F18.9°C 55.6°F13.1°C 69% 9.7 mph S15.6 kmh S 23.5 mph37.8 kmh 29.90 in1012.5 mb 0.00 in0.0 mm 0.00 in0.0 mm 0.00 in0.0 mm
04:15 PM 65.8°F18.8°C 55.4°F13.0°C 69% 8.6 mph S13.8 kmh S 23.5 mph37.8 kmh 29.90 in1012.5 mb 0.00 in0.0 mm 0.00 in0.0 mm 0.00 in0.0 mm
04:20 PM 65.8°F18.8°C 55.4°F13.0°C 69% 7.8 mph SSE12.6 kmh SSE 22.8 mph36.7 kmh 29.90 in1012.5 mb 0.00 in0.0 mm 0.00 in0.0 mm 0.00 in0.0 mm
04:25 PM 65.8°F18.8°C 55.4°F13.0°C 69% 8.1 mph S13.0 kmh S 22.8 mph36.7 kmh 29.91 in1012.9 mb 0.00 in0.0 mm 0.00 in0.0 mm 0.00 in0.0 mm
04:30 PM 65.8°F18.8°C 55.4°F13.0°C 69% 8.2 mph S13.2 kmh S 22.8 mph36.7 kmh 29.91 in1012.9 mb 0.00 in0.0 mm 0.00 in0.0 mm 0.00 in0.0 mm
04:35 PM 65.8°F18.8°C 55.4°F13.0°C 69% 6.7 mph S10.8 kmh S 22.8 mph36.7 kmh 29.91 in1012.9 mb 0.00 in0.0 mm 0.00 in0.0 mm 0.00 in0.0 mm
04:40 PM 65.7°F18.7°C 55.6°F13.1°C 70% 6.5 mph S10.5 kmh S 19.0 mph30.6 kmh 29.91 in1012.9 mb 0.00 in0.0 mm 0.00 in0.0 mm 0.00 in0.0 mm
04:45 PM 65.7°F18.7°C 55.6°F13.1°C 70% 7.2 mph S11.6 kmh S 19.0 mph30.6 kmh 29.92 in1013.2 mb 0.00 in0.0 mm 0.00 in0.0 mm 0.00 in0.0 mm
04:50 PM 65.7°F18.7°C 55.6°F13.1°C 70% 6.0 mph S9.7 kmh S 19.0 mph30.6 kmh 29.91 in1012.9 mb 0.00 in0.0 mm 0.00 in0.0 mm 0.00 in0.0 mm
04:55 PM 65.5°F18.6°C 55.8°F13.2°C 71% 5.3 mph S8.5 kmh S 13.6 mph21.9 kmh 29.91 in1012.9 mb 0.00 in0.0 mm 0.00 in0.0 mm 0.00 in0.0 mm
05:00 PM 65.5°F18.6°C 55.5°F13.1°C 70% 6.6 mph S10.6 kmh S 18.3 mph29.5 kmh 29.91 in1012.9 mb 0.00 in0.0 mm 0.00 in0.0 mm 0.00 in0.0 mm
05:05 PM 65.5°F18.6°C 55.5°F13.1°C 70% 7.8 mph S12.6 kmh S 19.7 mph31.7 kmh 29.91 in1012.9 mb 0.00 in0.0 mm 0.00 in0.0 mm 0.00 in0.0 mm
05:10 PM 65.5°F18.6°C 55.8°F13.2°C 71% 7.7 mph SSE12.4 kmh SSE 19.7 mph31.7 kmh 29.91 in1012.9 mb 0.00 in0.0 mm 0.00 in0.0 mm 0.00 in0.0 mm
05:15 PM 65.3°F18.5°C 56.1°F13.4°C 72% 6.8 mph SSE10.9 kmh SSE 16.8 mph27.0 kmh 29.90 in1012.5 mb 0.00 in0.0 mm 0.00 in0.0 mm 0.00 in0.0 mm
05:20 PM 65.1°F18.4°C 55.9°F13.3°C 72% 5.3 mph SSE8.5 kmh SSE 15.2 mph24.5 kmh 29.91 in1012.9 mb 0.00 in0.0 mm 0.00 in0.0 mm 0.00 in0.0 mm
05:25 PM 65.1°F18.4°C 55.9°F13.3°C 72% 4.7 mph SSE7.6 kmh SSE 16.8 mph27.0 kmh 29.91 in1012.9 mb 0.00 in0.0 mm 0.00 in0.0 mm 0.00 in0.0 mm
05:30 PM 65.1°F18.4°C 55.9°F13.3°C 72% 4.6 mph S7.4 kmh S 16.8 mph27.0 kmh 29.91 in1012.9 mb 0.00 in0.0 mm 0.00 in0.0 mm 0.00 in0.0 mm
05:35 PM 65.1°F18.4°C 55.9°F13.3°C 72% 4.0 mph S6.4 kmh S 10.7 mph17.2 kmh 29.90 in1012.5 mb 0.00 in0.0 mm 0.00 in0.0 mm 0.00 in0.0 mm
05:40 PM 65.1°F18.4°C 55.9°F13.3°C 72% 3.4 mph S5.5 kmh S 10.7 mph17.2 kmh 29.91 in1012.9 mb 0.00 in0.0 mm 0.00 in0.0 mm 0.00 in0.0 mm
05:45 PM 64.9°F18.3°C 56.1°F13.4°C 73% 3.3 mph SSE5.3 kmh SSE 8.3 mph13.4 kmh 29.91 in1012.9 mb 0.00 in0.0 mm 0.00 in0.0 mm 0.00 in0.0 mm
05:50 PM 64.9°F18.3°C 56.1°F13.4°C 73% 4.6 mph SSE7.4 kmh SSE 13.6 mph21.9 kmh 29.90 in1012.5 mb 0.00 in0.0 mm 0.00 in0.0 mm 0.00 in0.0 mm
05:55 PM 64.9°F18.3°C 56.1°F13.4°C 73% 6.3 mph SE10.1 kmh SE 13.6 mph21.9 kmh 29.90 in1012.5 mb 0.00 in0.0 mm 0.00 in0.0 mm 0.00 in0.0 mm
06:00 PM 65.1°F18.4°C 56.3°F13.5°C 73% 6.1 mph SE9.8 kmh SE 15.2 mph24.5 kmh 29.90 in1012.5 mb 0.00 in0.0 mm 0.00 in0.0 mm 0.00 in0.0 mm
06:05 PM 64.9°F18.3°C 56.1°F13.4°C 73% 6.0 mph SSE9.7 kmh SSE 17.4 mph28.0 kmh 29.90 in1012.5 mb 0.00 in0.0 mm 0.00 in0.0 mm 0.00 in0.0 mm
06:10 PM 65.1°F18.4°C 56.3°F13.5°C 73% 6.1 mph SSE9.8 kmh SSE 17.4 mph28.0 kmh 29.90 in1012.5 mb 0.00 in0.0 mm 0.00 in0.0 mm 0.00 in0.0 mm
06:15 PM 65.1°F18.4°C 55.9°F13.3°C 72% 5.9 mph SSE9.5 kmh SSE 13.0 mph20.9 kmh 29.90 in1012.5 mb 0.00 in0.0 mm 0.00 in0.0 mm 0.00 in0.0 mm
06:20 PM 65.1°F18.4°C 55.9°F13.3°C 72% 7.1 mph SSE11.4 kmh SSE 19.0 mph30.6 kmh 29.89 in1012.2 mb 0.00 in0.0 mm 0.00 in0.0 mm 0.00 in0.0 mm
06:25 PM 65.3°F18.5°C 56.1°F13.4°C 72% 9.1 mph SSE14.6 kmh SSE 20.6 mph33.2 kmh 29.90 in1012.5 mb 0.00 in0.0 mm 0.00 in0.0 mm 0.00 in0.0 mm
06:30 PM 65.3°F18.5°C 56.1°F13.4°C 72% 9.3 mph S15.0 kmh S 24.4 mph39.3 kmh 29.90 in1012.5 mb 0.00 in0.0 mm 0.00 in0.0 mm 0.00 in0.0 mm
06:35 PM 65.1°F18.4°C 55.9°F13.3°C 72% 8.7 mph SSE14.0 kmh SSE 24.4 mph39.3 kmh 29.90 in1012.5 mb 0.00 in0.0 mm 0.00 in0.0 mm 0.00 in0.0 mm
06:40 PM 65.1°F18.4°C 55.9°F13.3°C 72% 7.6 mph SE12.2 kmh SE 18.3 mph29.5 kmh 29.90 in1012.5 mb 0.00 in0.0 mm 0.00 in0.0 mm 0.00 in0.0 mm
06:45 PM 65.1°F18.4°C 55.9°F13.3°C 72% 6.7 mph SSE10.8 kmh SSE 15.9 mph25.6 kmh 29.91 in1012.9 mb 0.00 in0.0 mm 0.00 in0.0 mm 0.00 in0.0 mm
06:50 PM 64.9°F18.3°C 55.7°F13.2°C 72% 6.6 mph S10.6 kmh S 17.4 mph28.0 kmh 29.90 in1012.5 mb 0.00 in0.0 mm 0.00 in0.0 mm 0.00 in0.0 mm
06:55 PM 65.1°F18.4°C 55.9°F13.3°C 72% 6.1 mph SSE9.8 kmh SSE 17.4 mph28.0 kmh 29.90 in1012.5 mb 0.00 in0.0 mm 0.00 in0.0 mm 0.00 in0.0 mm
07:00 PM 65.1°F18.4°C 55.9°F13.3°C 72% 6.7 mph SSE10.8 kmh SSE 17.4 mph28.0 kmh 29.90 in1012.5 mb 0.00 in0.0 mm 0.00 in0.0 mm 0.00 in0.0 mm
07:05 PM 65.1°F18.4°C 55.9°F13.3°C 72% 7.4 mph S11.9 kmh S 21.3 mph34.3 kmh 29.91 in1012.9 mb 0.00 in0.0 mm 0.00 in0.0 mm 0.00 in0.0 mm
07:10 PM 64.9°F18.3°C 55.3°F12.9°C 71% 8.0 mph S12.9 kmh S 21.3 mph34.3 kmh 29.91 in1012.9 mb 0.00 in0.0 mm 0.00 in0.0 mm 0.00 in0.0 mm
07:15 PM 65.1°F18.4°C 55.5°F13.1°C 71% 6.7 mph S10.8 kmh S 21.3 mph34.3 kmh 29.90 in1012.5 mb 0.00 in0.0 mm 0.00 in0.0 mm 0.00 in0.0 mm
07:20 PM 64.9°F18.3°C 55.3°F12.9°C 71% 4.6 mph S7.4 kmh S 15.9 mph25.6 kmh 29.90 in1012.5 mb 0.00 in0.0 mm 0.00 in0.0 mm 0.00 in0.0 mm
07:25 PM 64.9°F18.3°C 55.3°F12.9°C 71% 5.0 mph S8.0 kmh S 13.0 mph20.9 kmh 29.90 in1012.5 mb 0.00 in0.0 mm 0.00 in0.0 mm 0.00 in0.0 mm
07:30 PM 65.1°F18.4°C 55.5°F13.1°C 71% 5.7 mph S9.2 kmh S 15.2 mph24.5 kmh 29.90 in1012.5 mb 0.00 in0.0 mm 0.00 in0.0 mm 0.00 in0.0 mm
07:35 PM 64.9°F18.3°C 55.3°F12.9°C 71% 5.8 mph S9.3 kmh S 15.2 mph24.5 kmh 29.90 in1012.5 mb 0.00 in0.0 mm 0.00 in0.0 mm 0.00 in0.0 mm
07:40 PM 64.9°F18.3°C 54.9°F12.7°C 70% 5.6 mph SSE9.0 kmh SSE 15.2 mph24.5 kmh 29.90 in1012.5 mb 0.00 in0.0 mm 0.00 in0.0 mm 0.00 in0.0 mm
07:45 PM 64.9°F18.3°C 54.9°F12.7°C 70% 6.2 mph S10.0 kmh S 17.4 mph28.0 kmh 29.90 in1012.5 mb 0.00 in0.0 mm 0.00 in0.0 mm 0.00 in0.0 mm
07:50 PM 64.9°F18.3°C 54.9°F12.7°C 70% 5.7 mph S9.2 kmh S 17.4 mph28.0 kmh 29.90 in1012.5 mb 0.00 in0.0 mm 0.00 in0.0 mm 0.00 in0.0 mm
07:55 PM 64.9°F18.3°C 54.5°F12.5°C 69% 4.0 mph S6.4 kmh S 14.5 mph23.3 kmh 29.89 in1012.2 mb 0.00 in0.0 mm 0.00 in0.0 mm 0.00 in0.0 mm
08:00 PM 65.1°F18.4°C 54.7°F12.6°C 69% 4.4 mph SSW7.1 kmh SSW 22.8 mph36.7 kmh 29.90 in1012.5 mb 0.00 in0.0 mm 0.00 in0.0 mm 0.00 in0.0 mm
08:05 PM 65.1°F18.4°C 54.7°F12.6°C 69% 4.5 mph S7.2 kmh S 22.8 mph36.7 kmh 29.90 in1012.5 mb 0.00 in0.0 mm 0.00 in0.0 mm 0.00 in0.0 mm
08:10 PM 65.1°F18.4°C 54.7°F12.6°C 69% 3.8 mph S6.1 kmh S 10.7 mph17.2 kmh 29.89 in1012.2 mb 0.00 in0.0 mm 0.00 in0.0 mm 0.00 in0.0 mm
08:15 PM 65.1°F18.4°C 54.7°F12.6°C 69% 4.5 mph S7.2 kmh S 11.4 mph18.3 kmh 29.90 in1012.5 mb 0.00 in0.0 mm 0.00 in0.0 mm 0.00 in0.0 mm
08:20 PM 65.1°F18.4°C 54.7°F12.6°C 69% 5.6 mph S9.0 kmh S 22.1 mph35.6 kmh 29.90 in1012.5 mb 0.00 in0.0 mm 0.00 in0.0 mm 0.00 in0.0 mm
08:25 PM 65.3°F18.5°C 54.9°F12.7°C 69% 4.8 mph SE7.7 kmh SE 22.1 mph35.6 kmh 29.90 in1012.5 mb 0.00 in0.0 mm 0.00 in0.0 mm 0.00 in0.0 mm
08:30 PM 65.3°F18.5°C 54.9°F12.7°C 69% 2.4 mph E3.9 kmh E 10.7 mph17.2 kmh 29.90 in1012.5 mb 0.00 in0.0 mm 0.00 in0.0 mm 0.00 in0.0 mm
08:35 PM 65.1°F18.4°C 55.1°F12.8°C 70% 2.0 mph ESE3.2 kmh ESE 6.9 mph11.1 kmh 29.90 in1012.5 mb 0.00 in0.0 mm 0.00 in0.0 mm 0.00 in0.0 mm
08:40 PM 65.1°F18.4°C 54.7°F12.6°C 69% 4.2 mph E6.8 kmh E 13.6 mph21.9 kmh 29.90 in1012.5 mb 0.00 in0.0 mm 0.00 in0.0 mm 0.00 in0.0 mm
08:45 PM 65.3°F18.5°C 54.5°F12.5°C 68% 4.8 mph ESE7.7 kmh ESE 13.6 mph21.9 kmh 29.91 in1012.9 mb 0.00 in0.0 mm 0.00 in0.0 mm 0.00 in0.0 mm
08:50 PM 65.5°F18.6°C 54.7°F12.6°C 68% 4.0 mph SE6.4 kmh SE 10.7 mph17.2 kmh 29.90 in1012.5 mb 0.00 in0.0 mm 0.00 in0.0 mm 0.00 in0.0 mm
08:55 PM 65.3°F18.5°C 54.9°F12.7°C 69% 4.2 mph SE6.8 kmh SE 9.8 mph15.8 kmh 29.91 in1012.9 mb 0.00 in0.0 mm 0.00 in0.0 mm 0.00 in0.0 mm
09:00 PM 65.1°F18.4°C 54.7°F12.6°C 69% 3.9 mph SE6.3 kmh SE 11.4 mph18.3 kmh 29.90 in1012.5 mb 0.00 in0.0 mm 0.00 in0.0 mm 0.00 in0.0 mm
09:05 PM 65.1°F18.4°C 54.7°F12.6°C 69% 4.7 mph SSE7.6 kmh SSE 13.0 mph20.9 kmh 29.91 in1012.9 mb 0.00 in0.0 mm 0.00 in0.0 mm 0.00 in0.0 mm
09:10 PM 65.1°F18.4°C 54.7°F12.6°C 69% 4.4 mph SSE7.1 kmh SSE 13.0 mph20.9 kmh 29.91 in1012.9 mb 0.00 in0.0 mm 0.00 in0.0 mm 0.00 in0.0 mm
09:15 PM 64.9°F18.3°C 54.5°F12.5°C 69% 3.5 mph SSE5.6 kmh SSE 11.4 mph18.3 kmh 29.91 in1012.9 mb 0.00 in0.0 mm 0.00 in0.0 mm 0.00 in0.0 mm
09:20 PM 64.9°F18.3°C 54.5°F12.5°C 69% 5.2 mph SSE8.4 kmh SSE 14.5 mph23.3 kmh 29.91 in1012.9 mb 0.00 in0.0 mm 0.00 in0.0 mm 0.00 in0.0 mm
09:25 PM 64.9°F18.3°C 54.9°F12.7°C 70% 4.8 mph SSE7.7 kmh SSE 14.5 mph23.3 kmh 29.91 in1012.9 mb 0.00 in0.0 mm 0.00 in0.0 mm 0.00 in0.0 mm
09:30 PM 64.8°F18.2°C 54.8°F12.7°C 70% 3.8 mph SE6.1 kmh SE 10.7 mph17.2 kmh 29.91 in1012.9 mb 0.00 in0.0 mm 0.00 in0.0 mm 0.00 in0.0 mm
09:35 PM 64.8°F18.2°C 55.2°F12.9°C 71% 4.5 mph SE7.2 kmh SE 10.7 mph17.2 kmh 29.91 in1012.9 mb 0.00 in0.0 mm 0.00 in0.0 mm 0.00 in0.0 mm
09:40 PM 64.8°F18.2°C 55.2°F12.9°C 71% 5.0 mph SSE8.0 kmh SSE 14.5 mph23.3 kmh 29.91 in1012.9 mb 0.00 in0.0 mm 0.00 in0.0 mm 0.00 in0.0 mm
09:45 PM 64.8°F18.2°C 54.8°F12.7°C 70% 4.9 mph SSE7.9 kmh SSE 14.5 mph23.3 kmh 29.91 in1012.9 mb 0.00 in0.0 mm 0.00 in0.0 mm 0.00 in0.0 mm
09:50 PM 64.6°F18.1°C 54.6°F12.6°C 70% 4.0 mph S6.4 kmh S 14.5 mph23.3 kmh 29.91 in1012.9 mb 0.00 in0.0 mm 0.00 in0.0 mm 0.00 in0.0 mm
09:55 PM 64.6°F18.1°C 54.6°F12.6°C 70% 4.0 mph S6.4 kmh S 9.8 mph15.8 kmh 29.91 in1012.9 mb 0.00 in0.0 mm 0.00 in0.0 mm 0.00 in0.0 mm
10:00 PM 64.4°F18.0°C 54.0°F12.2°C 69% 3.2 mph S5.1 kmh S 9.8 mph15.8 kmh 29.92 in1013.2 mb 0.00 in0.0 mm 0.00 in0.0 mm 0.00 in0.0 mm
10:05 PM 64.4°F18.0°C 54.0°F12.2°C 69% 2.3 mph SSE3.7 kmh SSE 14.5 mph23.3 kmh 29.92 in1013.2 mb 0.00 in0.0 mm 0.00 in0.0 mm 0.00 in0.0 mm
10:10 PM 64.4°F18.0°C 53.6°F12.0°C 68% 4.4 mph SE7.1 kmh SE 14.5 mph23.3 kmh 29.92 in1013.2 mb 0.00 in0.0 mm 0.00 in0.0 mm 0.00 in0.0 mm
10:15 PM 64.8°F18.2°C 53.6°F12.0°C 67% 5.4 mph SE8.7 kmh SE 12.1 mph19.5 kmh 29.91 in1012.9 mb 0.00 in0.0 mm 0.00 in0.0 mm 0.00 in0.0 mm
10:20 PM 64.6°F18.1°C 53.8°F12.1°C 68% 3.7 mph SE6.0 kmh SE 12.1 mph19.5 kmh 29.91 in1012.9 mb 0.00 in0.0 mm 0.00 in0.0 mm 0.00 in0.0 mm
10:25 PM 64.6°F18.1°C 54.2°F12.3°C 69% 3.6 mph SSE5.8 kmh SSE 9.2 mph14.8 kmh 29.91 in1012.9 mb 0.00 in0.0 mm 0.00 in0.0 mm 0.00 in0.0 mm
10:30 PM 64.6°F18.1°C 54.2°F12.3°C 69% 4.7 mph SSE7.6 kmh SSE 15.2 mph24.5 kmh 29.91 in1012.9 mb 0.00 in0.0 mm 0.00 in0.0 mm 0.00 in0.0 mm
10:35 PM 64.6°F18.1°C 54.6°F12.6°C 70% 5.4 mph SSE8.7 kmh SSE 15.2 mph24.5 kmh 29.91 in1012.9 mb 0.00 in0.0 mm 0.00 in0.0 mm 0.00 in0.0 mm
10:40 PM 64.6°F18.1°C 54.6°F12.6°C 70% 3.6 mph SSE5.8 kmh SSE 13.0 mph20.9 kmh 29.91 in1012.9 mb 0.00 in0.0 mm 0.00 in0.0 mm 0.00 in0.0 mm
10:45 PM 64.4°F18.0°C 54.4°F12.4°C 70% 2.3 mph SE3.7 kmh SE 17.4 mph28.0 kmh 29.91 in1012.9 mb 0.00 in0.0 mm 0.00 in0.0 mm 0.00 in0.0 mm
10:50 PM 64.6°F18.1°C 54.6°F12.6°C 70% 3.2 mph SSE5.1 kmh SSE 17.4 mph28.0 kmh 29.91 in1012.9 mb 0.00 in0.0 mm 0.00 in0.0 mm 0.00 in0.0 mm
10:55 PM 64.8°F18.2°C 54.8°F12.7°C 70% 4.2 mph SE6.8 kmh SE 22.1 mph35.6 kmh 29.90 in1012.5 mb 0.00 in0.0 mm 0.00 in0.0 mm 0.00 in0.0 mm
11:00 PM 64.8°F18.2°C 54.8°F12.7°C 70% 4.1 mph SE6.6 kmh SE 22.1 mph35.6 kmh 29.90 in1012.5 mb 0.00 in0.0 mm 0.00 in0.0 mm 0.00 in0.0 mm
11:05 PM 64.8°F18.2°C 54.8°F12.7°C 70% 2.4 mph S3.9 kmh S 10.7 mph17.2 kmh 29.90 in1012.5 mb 0.00 in0.0 mm 0.00 in0.0 mm 0.00 in0.0 mm
11:10 PM 64.8°F18.2°C 54.8°F12.7°C 70% 2.1 mph SW3.4 kmh SW 12.1 mph19.5 kmh 29.91 in1012.9 mb 0.00 in0.0 mm 0.00 in0.0 mm 0.00 in0.0 mm
11:15 PM 64.8°F18.2°C 54.8°F12.7°C 70% 1.7 mph SSW2.7 kmh SSW 12.1 mph19.5 kmh 29.91 in1012.9 mb 0.00 in0.0 mm 0.00 in0.0 mm 0.00 in0.0 mm
11:20 PM 64.8°F18.2°C 54.8°F12.7°C 70% 2.3 mph SW3.7 kmh SW 11.4 mph18.3 kmh 29.91 in1012.9 mb 0.00 in0.0 mm 0.00 in0.0 mm 0.00 in0.0 mm
11:25 PM 64.8°F18.2°C 55.2°F12.9°C 71% 4.1 mph S6.6 kmh S 15.9 mph25.6 kmh 29.91 in1012.9 mb 0.00 in0.0 mm 0.00 in0.0 mm 0.00 in0.0 mm
11:30 PM 64.8°F18.2°C 55.5°F13.1°C 72% 5.6 mph S9.0 kmh S 19.0 mph30.6 kmh 29.90 in1012.5 mb 0.00 in0.0 mm 0.00 in0.0 mm 0.00 in0.0 mm
11:35 PM 64.6°F18.1°C 55.4°F13.0°C 72% 6.0 mph S9.7 kmh S 19.0 mph30.6 kmh 29.90 in1012.5 mb 0.00 in0.0 mm 0.00 in0.0 mm 0.00 in0.0 mm
11:40 PM 64.6°F18.1°C 55.4°F13.0°C 72% 4.8 mph S7.7 kmh S 19.0 mph30.6 kmh 29.91 in1012.9 mb 0.00 in0.0 mm 0.00 in0.0 mm 0.00 in0.0 mm
11:45 PM 64.2°F17.9°C 55.4°F13.0°C 73% 3.6 mph S5.8 kmh S 17.4 mph28.0 kmh 29.91 in1012.9 mb 0.00 in0.0 mm 0.00 in0.0 mm 0.00 in0.0 mm
11:50 PM 64.4°F18.0°C 55.6°F13.1°C 73% 4.7 mph S7.6 kmh S 17.4 mph28.0 kmh 29.91 in1012.9 mb 0.00 in0.0 mm 0.00 in0.0 mm 0.00 in0.0 mm
11:55 PM 64.4°F18.0°C 55.6°F13.1°C 73% 6.3 mph SSE10.1 kmh SSE 17.4 mph28.0 kmh 29.90 in1012.5 mb 0.00 in0.0 mm 0.00 in0.0 mm 0.00 in0.0 mm